Time;durP1;ratioP1;P1;durP2;ratioP2;P2;SDS_P1;SDS_P2;PMS_P1;PMS_P2;Temp;Humidity;BMP_temperature;BMP_pressure;BME280_temperature;BME280_humidity;BME280_pressure;Samples;Min_cycle;Max_cycle;Signal;HPM_P1;HPM_P2
2021/11/08 00:00:53;;;;;;;65.68;38.88;;;;;;;9.93;100.00;100601.31;5132880;27;20484;-68
2021/11/08 00:03:23;;;;;;;66.72;40.05;;;;;;;9.88;100.00;100582.94;5133428;27;20015;-69
2021/11/08 00:05:48;;;;;;;62.70;39.58;;;;;;;9.89;100.00;100595.34;5131761;27;20051;-69
2021/11/08 00:08:16;;;;;;;66.22;39.88;;;;;;;9.85;100.00;100593.91;5134550;27;20114;-69
2021/11/08 00:10:42;;;;;;;65.00;38.72;;;;;;;9.85;100.00;100574.28;5134239;27;20026;-69
2021/11/08 00:13:09;;;;;;;63.85;38.30;;;;;;;9.87;100.00;100585.75;5134648;27;20036;-70
2021/11/08 00:16:27;;;;;;;66.57;38.88;;;;;;;9.85;100.00;100593.91;5131038;27;20015;-67
2021/11/08 00:18:33;;;;;;;61.72;38.55;;;;;;;9.82;100.00;100599.50;5128352;27;20100;-68
2021/11/08 00:20:59;;;;;;;60.45;40.20;;;;;;;9.82;100.00;100606.66;5132693;27;20043;-68
2021/11/08 00:23:27;;;;;;;71.10;40.40;;;;;;;9.84;100.00;100596.69;5132715;27;20039;-69
2021/11/08 00:25:53;;;;;;;60.42;38.45;;;;;;;9.81;100.00;100605.84;5133924;27;20084;-69
2021/11/08 00:28:20;;;;;;;63.03;37.13;;;;;;;9.83;100.00;100603.88;5134817;27;20025;-68
2021/11/08 00:30:46;;;;;;;61.17;38.90;;;;;;;9.90;100.00;100615.78;5132811;27;20023;-68
2021/11/08 00:33:17;;;;;;;64.10;38.20;;;;;;;9.89;100.00;100600.69;5133990;27;20075;-68
2021/11/08 00:35:52;;;;;;;60.85;37.35;;;;;;;9.85;100.00;100576.97;5134190;27;20037;-68
2021/11/08 00:38:18;;;;;;;65.25;37.97;;;;;;;9.84;100.00;100577.94;5133994;27;20558;-68
2021/11/08 00:40:45;;;;;;;56.80;37.08;;;;;;;9.83;100.00;100568.22;5134179;27;20095;-68
2021/11/08 00:43:12;;;;;;;55.00;35.70;;;;;;;9.84;100.00;100562.75;5133600;27;20039;-67
2021/11/08 00:45:38;;;;;;;52.33;35.00;;;;;;;9.85;100.00;100583.19;5133916;27;20054;-68
2021/11/08 00:48:05;;;;;;;53.20;35.13;;;;;;;9.89;100.00;100600.69;5133593;27;20042;-68
2021/11/08 00:50:32;;;;;;;55.00;36.75;;;;;;;9.91;100.00;100595.22;5132726;27;20121;-66
2021/11/08 00:52:58;;;;;;;52.70;35.40;;;;;;;9.95;100.00;100597.53;5132462;27;20054;-65
2021/11/08 00:55:26;;;;;;;59.47;35.92;;;;;;;9.86;100.00;100576.84;5132439;27;20046;-65
2021/11/08 00:57:55;;;;;;;58.22;36.80;;;;;;;9.70;100.00;100511.25;5132230;27;20031;-66
2021/11/08 01:00:25;;;;;;;59.88;36.97;;;;;;;9.83;100.00;100566.38;5132588;27;20027;-67
2021/11/08 01:02:51;;;;;;;54.22;34.72;;;;;;;9.84;100.00;100576.13;5132829;27;20481;-67
2021/11/08 01:05:17;;;;;;;58.53;36.33;;;;;;;9.84;100.00;100569.91;5132521;27;20074;-67
2021/11/08 01:07:43;;;;;;;58.15;36.95;;;;;;;9.85;100.00;100590.34;5132427;27;20054;-66
2021/11/08 01:10:11;;;;;;;55.53;34.38;;;;;;;9.90;100.00;100598.88;5132375;27;20527;-66
2021/11/08 01:12:37;;;;;;;54.00;33.35;;;;;;;9.85;100.00;100606.44;5132143;27;20387;-65
2021/11/08 01:15:04;;;;;;;52.92;33.05;;;;;;;9.78;100.00;100560.56;5132293;27;20094;-66
2021/11/08 01:17:30;;;;;;;53.63;34.72;;;;;;;9.75;100.00;100555.44;5132222;27;20035;-66
2021/11/08 01:19:55;;;;;;;55.97;34.20;;;;;;;9.78;100.00;100565.03;5131869;27;20023;-66
2021/11/08 01:22:22;;;;;;;56.55;33.05;;;;;;;9.82;100.00;100571.84;5130925;27;20110;-67
2021/11/08 01:24:54;;;;;;;50.45;32.72;;;;;;;9.82;100.00;100569.16;5131995;27;20021;-65
2021/11/08 01:27:32;;;;;;;54.08;33.25;;;;;;;9.81;100.00;100567.47;5131705;27;20022;-66
2021/11/08 01:29:59;;;;;;;47.33;31.55;;;;;;;9.81;100.00;100559.44;5131720;27;20034;-66
2021/11/08 01:32:24;;;;;;;48.15;30.80;;;;;;;9.77;100.00;100550.78;5130745;27;20378;-66
2021/11/08 01:34:50;;;;;;;50.38;31.50;;;;;;;9.74;100.00;100543.00;5132119;27;20019;-66
2021/11/08 01:37:18;;;;;;;52.15;33.08;;;;;;;9.76;100.00;100546.41;5131985;27;20072;-65
2021/11/08 01:39:44;;;;;;;49.47;30.80;;;;;;;9.74;100.00;100548.34;5131639;27;20038;-65
2021/11/08 01:42:13;;;;;;;52.13;30.60;;;;;;;9.78;100.00;100560.56;5131578;27;20019;-66
2021/11/08 01:44:39;;;;;;;45.88;29.60;;;;;;;9.73;100.00;100552.03;5130254;27;20023;-67
2021/11/08 01:47:07;;;;;;;49.05;30.02;;;;;;;9.77;100.00;100552.63;5131426;27;20096;-65
2021/11/08 01:49:33;;;;;;;47.40;31.10;;;;;;;9.84;100.00;100557.38;5131558;27;20031;-65
2021/11/08 01:51:59;;;;;;;47.88;31.20;;;;;;;9.80;100.00;100541.69;5130121;27;20077;-67
2021/11/08 01:54:26;;;;;;;50.95;32.05;;;;;;;9.80;100.00;100557.75;5131418;27;20027;-65
2021/11/08 01:56:53;;;;;;;48.63;31.63;;;;;;;9.85;100.00;100577.81;5131593;27;20070;-67
2021/11/08 01:59:20;;;;;;;50.08;30.40;;;;;;;9.76;100.00;100533.03;5131430;27;20678;-67
2021/11/08 02:01:46;;;;;;;46.60;29.85;;;;;;;9.82;100.00;100545.91;5130431;27;20668;-67
2021/11/08 02:04:12;;;;;;;43.88;29.58;;;;;;;9.77;100.00;100552.63;5130645;27;20055;-66
2021/11/08 02:06:38;;;;;;;46.88;29.77;;;;;;;9.83;100.00;100563.69;5130605;27;20508;-66
2021/11/08 02:09:04;;;;;;;46.15;29.75;;;;;;;9.80;100.00;100537.16;5129389;27;20031;-66
2021/11/08 02:11:35;;;;;;;45.25;29.33;;;;;;;9.82;100.00;100548.59;5130800;27;20031;-66
2021/11/08 02:14:02;;;;;;;45.05;30.65;;;;;;;9.77;100.00;100558.00;5130722;27;20019;-66
2021/11/08 02:16:28;;;;;;;49.83;30.60;;;;;;;9.77;100.00;100545.44;5130809;27;20395;-66
2021/11/08 02:18:55;;;;;;;43.90;29.67;;;;;;;9.79;100.00;100562.25;5127331;27;20118;-66
2021/11/08 02:21:20;;;;;;;48.40;30.60;;;;;;;9.75;100.00;100542.03;5128694;27;20407;-67
2021/11/08 02:23:48;;;;;;;42.65;27.60;;;;;;;9.78;100.00;100535.56;5129215;27;20031;-66
2021/11/08 02:26:16;;;;;;;45.70;28.95;;;;;;;9.77;100.00;100518.66;5130585;27;20054;-66
2021/11/08 02:28:46;;;;;;;40.65;27.98;;;;;;;9.81;100.00;100505.88;5130531;27;20066;-66
2021/11/08 02:31:19;;;;;;;44.28;28.27;;;;;;;9.78;100.00;100539.13;5130418;27;20063;-66
2021/11/08 02:33:48;;;;;;;46.83;27.38;;;;;;;9.86;100.00;100557.25;5129096;27;20035;-66
2021/11/08 02:36:14;;;;;;;43.13;27.17;;;;;;;9.83;100.00;100589.66;5130105;27;20031;-67
2021/11/08 02:38:46;;;;;;;39.10;26.23;;;;;;;9.82;100.00;100615.56;5130197;27;20034;-67
2021/11/08 02:41:12;;;;;;;38.47;26.27;;;;;;;9.91;100.00;100633.59;5130174;27;20068;-67
2021/11/08 02:43:39;;;;;;;41.83;26.83;;;;;;;9.94;100.00;100608.38;5130342;27;20409;-66
2021/11/08 02:46:11;;;;;;;43.97;26.27;;;;;;;9.87;100.00;100583.06;5130302;27;20035;-65
2021/11/08 02:48:39;;;;;;;41.60;27.17;;;;;;;9.80;100.00;100555.06;5127227;27;20023;-66
2021/11/08 02:51:14;;;;;;;38.95;27.35;;;;;;;9.82;100.00;100556.63;5130823;27;20110;-66
2021/11/08 02:53:43;;;;;;;39.80;26.77;;;;;;;9.79;100.00;100556.88;5127650;27;20374;-66
2021/11/08 02:56:09;;;;;;;42.53;28.05;;;;;;;9.76;100.00;100573.19;5129052;28;20122;-64
2021/11/08 02:58:38;;;;;;;40.92;27.52;;;;;;;9.68;100.00;100574.78;5130545;27;20076;-66
2021/11/08 03:01:06;;;;;;;40.72;26.88;;;;;;;9.88;100.00;100627.63;5130425;27;20079;-66
2021/11/08 03:03:39;;;;;;;43.03;27.20;;;;;;;9.86;100.00;100619.69;5130669;27;20026;-66
2021/11/08 03:06:30;;;;;;;42.72;27.73;;;;;;;9.79;100.00;100610.47;5128243;28;20037;-66
2021/11/08 03:08:52;;;;;;;36.90;26.15;;;;;;;9.79;100.00;100607.78;5127528;28;20035;-66
2021/11/08 03:11:19;;;;;;;41.90;25.92;;;;;;;9.86;100.00;100609.00;5128919;27;20541;-67
2021/11/08 03:14:20;;;;;;;38.47;25.73;;;;;;;9.82;100.00;100599.50;5130477;27;20368;-66
2021/11/08 03:16:43;;;;;;;40.70;26.52;;;;;;;9.80;100.00;100585.38;5129108;28;20125;-66
2021/11/08 03:22:12;;;;;;;;;;;;;;;9.72;100.00;100542.28;5121377;27;20490;-67
2021/11/08 03:24:45;;;;;;;38.63;25.50;;;;;;;9.74;100.00;100543.00;5130263;27;20320;-67
2021/11/08 03:27:27;;;;;;;36.67;23.63;;;;;;;9.70;100.00;100543.41;5130265;27;20030;-67
2021/11/08 03:29:52;;;;;;;34.63;23.88;;;;;;;9.66;100.00;100550.81;5130201;27;20027;-66
2021/11/08 03:32:19;;;;;;;39.42;25.05;;;;;;;9.65;100.00;100550.94;5130261;27;20027;-65
2021/11/08 03:34:58;;;;;;;38.13;24.23;;;;;;;9.63;100.00;100576.97;5130341;27;20023;-65
2021/11/08 03:37:26;;;;;;;36.50;23.88;;;;;;;9.73;100.00;100612.75;5128994;28;20027;-65
2021/11/08 03:39:51;;;;;;;37.47;24.05;;;;;;;9.75;100.00;100630.44;5130319;27;20420;-67
2021/11/08 03:42:18;;;;;;;36.17;22.92;;;;;;;9.67;100.00;100634.69;5130083;27;20107;-66
2021/11/08 03:44:44;;;;;;;37.10;24.52;;;;;;;9.63;100.00;100615.31;5130309;27;20110;-66
2021/11/08 03:47:10;;;;;;;36.58;23.33;;;;;;;9.61;100.00;100614.59;5129828;27;20026;-66
2021/11/08 03:49:35;;;;;;;36.10;23.65;;;;;;;9.59;100.00;100619.22;5128792;28;20034;-67
2021/11/08 03:52:01;;;;;;;34.70;23.08;;;;;;;9.57;100.00;100631.88;5132088;27;20387;-65
2021/11/08 03:54:27;;;;;;;33.58;22.08;;;;;;;9.53;100.00;100646.47;5132767;27;20030;-66
2021/11/08 03:56:53;;;;;;;34.35;23.38;;;;;;;9.52;100.00;100663.53;5129689;27;20037;-65
2021/11/08 03:59:18;;;;;;;33.85;22.75;;;;;;;9.45;100.00;100638.22;5131966;27;20035;-66
2021/11/08 04:01:44;;;;;;;36.75;24.45;;;;;;;9.46;100.00;100631.88;5132428;27;20117;-66
2021/11/08 04:04:09;;;;;;;36.15;23.58;;;;;;;9.50;100.00;100661.91;5133698;27;20080;-66
2021/11/08 04:06:41;;;;;;;35.83;22.42;;;;;;;9.52;100.00;100676.06;5132273;27;20027;-65
2021/11/08 04:09:12;;;;;;;36.15;24.55;;;;;;;9.49;100.00;100687.88;5131172;27;20019;-65
2021/11/08 04:11:40;;;;;;;34.40;22.60;;;;;;;9.41;100.00;100666.16;5133448;27;20027;-65
2021/11/08 04:14:08;;;;;;;32.58;22.27;;;;;;;9.47;100.00;100652.31;5131971;27;20087;-66
2021/11/08 04:16:34;;;;;;;34.28;22.90;;;;;;;9.46;100.00;100647.06;5133501;27;20159;-65
2021/11/08 04:19:01;;;;;;;31.13;20.90;;;;;;;9.40;100.00;100628.81;5133336;27;20066;-66
2021/11/08 04:21:28;;;;;;;30.70;21.15;;;;;;;9.47;100.00;100635.38;5133623;27;20031;-67
2021/11/08 04:23:54;;;;;;;29.17;20.52;;;;;;;9.46;100.00;100634.56;5133306;27;20023;-65
2021/11/08 04:26:23;;;;;;;34.38;22.27;;;;;;;9.48;100.00;100635.25;5131991;27;20054;-67
2021/11/08 04:28:59;;;;;;;31.85;21.33;;;;;;;9.40;100.00;100643.06;5133199;27;20035;-66
2021/11/08 04:31:25;;;;;;;31.98;21.42;;;;;;;9.46;100.00;100661.31;5132152;27;20348;-65
2021/11/08 04:34:02;;;;;;;35.05;21.55;;;;;;;9.48;100.00;100654.00;5133185;27;20033;-67
2021/11/08 05:30:12;;;;;;;29.10;20.88;;;;;;;9.22;100.00;100663.19;5129617;27;20391;-67
2021/11/08 05:32:41;;;;;;;30.60;20.60;;;;;;;9.21;100.00;100650.81;5132416;27;20103;-67
2021/11/08 05:35:10;;;;;;;31.75;20.60;;;;;;;9.26;100.00;100652.16;5132476;27;20046;-68
2021/11/08 05:37:37;;;;;;;31.13;21.55;;;;;;;9.24;100.00;100663.94;5132987;27;20026;-67
2021/11/08 05:40:10;;;;;;;34.95;21.98;;;;;;;9.25;100.00;100684.38;5133139;27;20023;-69
2021/11/08 05:42:37;;;;;;;30.83;20.07;;;;;;;9.19;100.00;100677.69;5131788;27;20156;-68
2021/11/08 05:45:04;;;;;;;29.80;20.02;;;;;;;9.19;100.00;100679.50;5132779;27;20290;-68
2021/11/08 05:47:30;;;;;;;31.15;20.92;;;;;;;9.21;100.00;100707.88;5132834;27;20023;-68
2021/11/08 05:49:56;;;;;;;34.40;21.08;;;;;;;9.22;100.00;100706.03;5132435;27;20027;-67
2021/11/08 05:52:22;;;;;;;31.27;21.08;;;;;;;9.22;100.00;100703.34;5132785;27;20023;-68
2021/11/08 05:54:48;;;;;;;30.38;20.27;;;;;;;9.22;100.00;100712.22;5119964;27;20086;-67
2021/11/08 05:57:39;;;;;;;33.92;21.08;;;;;;;9.24;100.00;100726.38;5132499;27;20019;-67
2021/11/08 06:51:47;;;;;;;29.98;19.13;;;;;;;9.18;100.00;100825.84;5131482;27;20047;-69
2021/11/08 06:54:13;;;;;;;31.08;20.50;;;;;;;9.22;100.00;100813.94;5131574;27;20030;-69
2021/11/08 06:57:05;;;;;;;27.35;18.45;;;;;;;9.23;100.00;100818.31;5131862;27;20019;-68
2021/11/08 06:59:25;;;;;;;28.13;19.83;;;;;;;9.18;100.00;100838.34;5130892;28;20035;-67
2021/11/08 07:01:55;;;;;;;25.92;18.85;;;;;;;9.16;100.00;100845.66;5131731;27;20110;-69
2021/11/08 07:04:22;;;;;;;28.20;18.70;;;;;;;9.25;100.00;100855.66;5131446;27;20051;-69
2021/11/08 07:06:48;;;;;;;26.70;18.73;;;;;;;9.27;100.00;100856.41;5131850;27;20383;-68
2021/11/08 07:09:15;;;;;;;26.83;17.98;;;;;;;9.22;100.00;100859.44;5131489;27;20019;-69
2021/11/08 07:11:41;;;;;;;27.27;17.77;;;;;;;9.33;100.00;100866.69;5130326;28;20015;-69
2021/11/08 07:14:08;;;;;;;26.27;19.13;;;;;;;9.29;100.00;100860.69;5131555;27;20035;-69
2021/11/08 07:16:35;;;;;;;26.50;17.42;;;;;;;9.24;100.00;100857.50;5131805;27;20027;-69
2021/11/08 07:19:01;;;;;;;26.92;17.73;;;;;;;9.24;100.00;100859.31;5131746;27;20491;-68
2021/11/08 07:21:27;;;;;;;26.42;17.65;;;;;;;9.27;100.00;100864.44;5132086;27;20031;-69
2021/11/08 07:23:53;;;;;;;25.23;16.55;;;;;;;9.26;100.00;100876.97;5130253;28;20055;-70
2021/11/08 07:26:18;;;;;;;26.13;17.00;;;;;;;9.32;100.00;100880.16;5132291;27;20050;-69
2021/11/08 07:28:44;;;;;;;25.85;15.45;;;;;;;9.22;100.00;100864.78;5135818;27;20077;-70
2021/11/08 07:31:10;;;;;;;22.52;15.10;;;;;;;9.42;100.00;100857.09;5135700;27;20027;-69
2021/11/08 07:33:36;;;;;;;24.27;14.93;;;;;;;9.35;100.00;100845.97;5135958;27;20435;-69
2021/11/08 07:36:02;;;;;;;21.55;14.38;;;;;;;9.30;100.00;100850.84;5135675;27;20057;-70
2021/11/08 07:38:27;;;;;;;25.13;15.63;;;;;;;9.31;100.00;100841.84;5135082;27;20038;-70
2021/11/08 07:40:53;;;;;;;21.45;14.63;;;;;;;9.28;100.00;100836.72;5136074;27;20015;-70
2021/11/08 07:43:18;;;;;;;22.92;13.90;;;;;;;9.30;100.00;100829.44;5135351;27;20247;-69
2021/11/08 07:45:44;;;;;;;19.95;13.38;;;;;;;9.32;100.00;100843.53;5136062;27;20658;-69
2021/11/08 07:48:09;;;;;;;21.92;13.90;;;;;;;9.30;100.00;100832.09;5134458;27;20019;-68
2021/11/08 07:50:35;;;;;;;21.95;13.57;;;;;;;9.25;100.00;100820.88;5135724;27;20031;-70
2021/11/08 07:53:01;;;;;;;20.45;12.93;;;;;;;9.21;100.00;100814.91;5135224;27;20459;-70
2021/11/08 07:55:27;;;;;;;18.30;13.25;;;;;;;9.16;100.00;100835.78;5135366;27;20478;-70
2021/11/08 07:57:52;;;;;;;19.48;13.25;;;;;;;9.11;100.00;100837.09;5135372;27;20023;-70
2021/11/08 08:00:18;;;;;;;20.52;13.52;;;;;;;9.19;100.00;100840.06;5135096;27;20471;-70
2021/11/08 08:02:44;;;;;;;20.52;13.52;;;;;;;9.17;100.00;100839.34;5135194;27;20475;-69
2021/11/08 08:05:10;;;;;;;19.63;13.55;;;;;;;9.16;100.00;100818.91;5133892;27;20046;-69
2021/11/08 08:07:35;;;;;;;19.45;12.77;;;;;;;9.19;100.00;100815.97;5134999;27;20467;-69
2021/11/08 08:10:01;;;;;;;23.15;13.18;;;;;;;9.22;100.00;100818.41;5135305;27;20035;-69
2021/11/08 08:12:27;;;;;;;18.13;12.50;;;;;;;9.10;100.00;100790.75;5135503;27;20027;-70
2021/11/08 08:14:52;;;;;;;18.83;13.38;;;;;;;9.18;100.00;100815.13;5135243;27;20019;-70
2021/11/08 08:17:18;;;;;;;18.95;12.70;;;;;;;9.22;100.00;100821.97;5134855;27;20027;-70
2021/11/08 08:19:45;;;;;;;20.77;13.82;;;;;;;9.21;100.00;100819.41;5135098;27;20019;-69
2021/11/08 08:22:11;;;;;;;16.52;11.85;;;;;;;9.20;100.00;100820.38;5135211;27;20391;-69
2021/11/08 08:24:36;;;;;;;18.58;12.50;;;;;;;9.26;100.00;100835.97;5135090;27;20023;-68
2021/11/08 08:27:03;;;;;;;16.38;11.60;;;;;;;9.22;100.00;100854.06;5135063;27;20057;-70
2021/11/08 08:29:30;;;;;;;19.00;13.13;;;;;;;9.13;100.00;100867.28;5133913;27;20076;-70
2021/11/08 08:31:55;;;;;;;18.10;12.00;;;;;;;9.20;100.00;100888.13;5135192;27;20126;-70
2021/11/08 08:34:22;;;;;;;18.60;11.60;;;;;;;9.16;100.00;100894.66;5133517;27;20066;-70
2021/11/08 08:36:48;;;;;;;15.25;10.80;;;;;;;9.18;100.00;100898.09;5134204;27;20042;-69
2021/11/08 08:39:14;;;;;;;21.65;11.88;;;;;;;9.20;100.00;100912.19;5134374;27;20023;-69
2021/11/08 08:41:42;;;;;;;18.58;12.18;;;;;;;9.23;100.00;100913.81;5134843;27;20050;-70
2021/11/08 08:44:12;;;;;;;17.45;12.05;;;;;;;9.19;100.00;100915.00;5134672;27;20083;-69
2021/11/08 08:46:40;;;;;;;19.85;12.90;;;;;;;9.20;100.00;100927.44;5134486;27;20026;-69
2021/11/08 08:49:05;;;;;;;17.05;11.82;;;;;;;9.10;100.00;100929.88;5134828;27;20455;-68
2021/11/08 08:51:31;;;;;;;23.13;13.32;;;;;;;9.18;100.00;100937.38;5134457;27;20070;-70
2021/11/08 08:53:56;;;;;;;18.00;13.02;;;;;;;9.21;100.00;100953.22;5134413;27;20451;-69
2021/11/08 08:56:23;;;;;;;19.90;13.27;;;;;;;9.20;100.00;100951.50;5134014;27;20453;-70
2021/11/08 08:58:50;;;;;;;16.95;12.70;;;;;;;9.21;100.00;100955.88;5134433;27;20026;-69
2021/11/08 09:01:16;;;;;;;17.42;12.93;;;;;;;9.19;100.00;100964.03;5131908;27;20023;-69
2021/11/08 09:03:42;;;;;;;17.83;12.80;;;;;;;9.20;100.00;100970.25;5134622;27;20046;-68
2021/11/08 09:06:07;;;;;;;17.23;11.93;;;;;;;9.18;100.00;100966.81;5133999;27;20115;-69
2021/11/08 09:08:35;;;;;;;18.02;12.45;;;;;;;9.20;100.00;100954.19;5133853;27;20014;-70
2021/11/08 09:11:00;;;;;;;15.32;12.05;;;;;;;9.26;100.00;100951.06;5133979;27;20026;-70
2021/11/08 09:13:26;;;;;;;21.88;12.55;;;;;;;9.33;100.00;100946.97;5133689;27;20467;-68
2021/11/08 09:15:51;;;;;;;16.13;12.15;;;;;;;9.28;100.00;100949.13;5133682;27;20019;-68
2021/11/08 09:18:17;;;;;;;18.23;13.40;;;;;;;9.27;100.00;100942.94;5133413;27;20023;-69
2021/11/08 09:20:44;;;;;;;17.42;12.57;;;;;;;9.28;100.00;100946.44;5134128;27;20035;-69
2021/11/08 09:23:10;;;;;;;20.42;13.13;;;;;;;9.20;100.00;100930.94;5132267;27;20019;-69
2021/11/08 09:25:36;;;;;;;20.75;12.88;;;;;;;9.23;100.00;100933.38;5132181;27;20042;-69
2021/11/08 09:28:03;;;;;;;20.65;12.98;;;;;;;9.20;100.00;100925.59;5132800;27;20488;-69
2021/11/08 09:30:33;;;;;;;15.15;12.00;;;;;;;9.23;100.00;100927.22;5133101;27;20479;-69
2021/11/08 09:32:59;;;;;;;16.83;12.30;;;;;;;9.24;100.00;100915.53;5130633;27;20062;-69
2021/11/08 09:35:31;;;;;;;21.83;14.02;;;;;;;9.29;100.00;100911.53;5130693;27;20027;-69
2021/11/08 09:37:58;;;;;;;16.80;12.40;;;;;;;9.38;100.00;100918.03;5132159;27;20087;-69
2021/11/08 09:40:24;;;;;;;16.60;12.07;;;;;;;9.38;100.00;100910.00;5131503;27;20019;-68
2021/11/08 09:42:54;;;;;;;16.80;11.45;;;;;;;9.47;100.00;100912.00;5132470;27;20439;-69
2021/11/08 09:45:20;;;;;;;17.65;12.73;;;;;;;9.49;100.00;100914.56;5132604;27;20035;-69
2021/11/08 09:47:47;;;;;;;18.08;11.48;;;;;;;9.46;100.00;100912.13;5132711;27;20023;-70
2021/11/08 09:50:15;;;;;;;20.67;12.68;;;;;;;9.48;100.00;100927.09;5126684;27;20047;-69
2021/11/08 09:52:46;;;;;;;17.80;12.85;;;;;;;9.49;100.00;100918.13;5128045;27;20031;-70
2021/11/08 09:55:15;;;;;;;17.63;11.73;;;;;;;9.61;100.00;100925.22;5131207;27;20038;-69
2021/11/08 09:57:41;;;;;;;18.33;12.65;;;;;;;9.65;100.00;100920.50;5132017;27;20098;-69
2021/11/08 10:00:26;;;;;;;22.25;14.15;;;;;;;9.59;100.00;100912.94;5132251;27;20031;-69
2021/11/08 10:02:58;;;;;;;22.15;13.95;;;;;;;9.60;100.00;100910.13;5131912;27;20160;-69
2021/11/08 10:05:27;;;;;;;17.83;13.02;;;;;;;9.65;100.00;100920.50;5132078;27;20130;-69
2021/11/08 10:07:53;;;;;;;14.93;12.02;;;;;;;9.73;98.50;100910.94;5132319;27;20029;-69
2021/11/08 10:10:19;;;;;;;18.15;13.27;;;;;;;9.80;98.98;100905.97;5132081;27;20156;-69
2021/11/08 10:12:48;;;;;;;19.90;13.07;;;;;;;9.75;99.12;100908.13;5132500;27;20023;-69
2021/11/08 10:15:16;;;;;;;17.00;11.82;;;;;;;9.72;99.30;100897.66;5132128;27;20497;-68
2021/11/08 10:17:42;;;;;;;19.10;12.75;;;;;;;9.72;98.42;100903.88;5132415;27;20094;-68
2021/11/08 10:20:16;;;;;;;17.02;13.07;;;;;;;9.68;99.33;100886.31;5132281;27;20382;-69
2021/11/08 10:22:42;;;;;;;17.17;12.60;;;;;;;9.73;99.07;100896.66;5130400;27;20037;-69
2021/11/08 10:25:14;;;;;;;18.48;12.43;;;;;;;9.72;98.93;100894.97;5130993;27;20043;-69
2021/11/08 10:27:42;;;;;;;27.83;14.18;;;;;;;9.76;98.25;100881.22;5130091;27;20031;-69
2021/11/08 10:30:19;;;;;;;17.15;12.23;;;;;;;9.79;98.38;100882.81;5129663;27;20095;-67
2021/11/08 10:32:44;;;;;;;19.67;12.65;;;;;;;9.82;98.28;100885.28;5130781;27;20076;-69
2021/11/08 10:35:09;;;;;;;15.25;10.88;;;;;;;9.84;98.83;100894.06;5131702;27;20019;-69
2021/11/08 10:37:35;;;;;;;18.15;11.60;;;;;;;9.92;97.12;100891.63;5132102;27;20031;-70
2021/11/08 10:40:01;;;;;;;18.75;12.77;;;;;;;9.96;96.68;100890.47;5131835;27;20038;-69
2021/11/08 10:42:29;;;;;;;17.25;11.90;;;;;;;9.92;96.75;100884.47;5130406;27;20475;-68
2021/11/08 10:44:55;;;;;;;21.13;11.27;;;;;;;9.97;96.57;100886.78;5131955;27;20336;-69
2021/11/08 10:47:21;;;;;;;16.17;11.23;;;;;;;9.97;96.78;100884.13;5131430;27;20034;-69
2021/11/08 10:49:47;;;;;;;15.35;11.07;;;;;;;10.02;95.91;100888.16;5131695;27;20360;-68
2021/11/08 10:52:15;;;;;;;14.23;10.55;;;;;;;10.15;94.35;100890.75;5131890;27;20027;-70
2021/11/08 10:54:47;;;;;;;17.65;11.55;;;;;;;10.13;94.86;100892.72;5130672;27;20079;-69
2021/11/08 10:57:17;;;;;;;19.17;12.48;;;;;;;10.10;95.35;100899.19;5129328;28;20031;-69
2021/11/08 10:59:48;;;;;;;21.05;12.88;;;;;;;10.08;95.90;100908.28;5125984;27;20023;-69
2021/11/08 11:02:18;;;;;;;18.42;13.18;;;;;;;10.12;95.76;100909.78;5136261;27;20114;-69
2021/11/08 11:04:50;;;;;;;18.50;13.70;;;;;;;10.13;96.03;100901.59;5136291;27;20051;-69
2021/11/08 11:07:23;;;;;;;19.10;12.48;;;;;;;10.23;95.12;100869.59;5136405;27;20078;-68
2021/11/08 11:09:50;;;;;;;17.27;10.82;;;;;;;10.34;92.61;100875.81;5138581;27;20054;-68
2021/11/08 11:12:26;;;;;;;14.20;10.20;;;;;;;10.38;93.73;100882.66;5138829;27;20091;-69
2021/11/08 11:15:01;;;;;;;21.17;12.73;;;;;;;10.33;94.25;100882.16;5138916;27;20620;-69
2021/11/08 11:18:02;;;;;;;20.90;12.70;;;;;;;10.26;94.87;100891.66;5138514;27;20071;-70
2021/11/08 11:20:36;;;;;;;16.30;11.52;;;;;;;10.24;95.95;100882.00;5054930;28;20033;-68
2021/11/08 11:23:08;;;;;;;14.03;10.93;;;;;;;10.33;94.23;100890.22;5125758;27;20072;-68
2021/11/08 11:25:37;;;;;;;15.35;11.13;;;;;;;10.37;92.64;100897.03;5138544;27;20058;-69
2021/11/08 11:28:05;;;;;;;13.52;9.95;;;;;;;10.35;93.83;100898.97;5138879;27;20054;-70
2021/11/08 11:30:56;;;;;;;14.30;10.95;;;;;;;10.35;94.60;100904.34;5138958;27;20133;-69
2021/11/08 11:33:26;;;;;;;19.70;11.40;;;;;;;10.35;94.22;100882.06;5134159;27;20491;-68
2021/11/08 11:36:12;;;;;;;15.05;10.77;;;;;;;10.46;94.03;100893.66;5139427;27;20023;-68
2021/11/08 11:38:44;;;;;;;14.15;9.85;;;;;;;10.44;94.09;100903.63;5138595;27;20023;-67
2021/11/08 11:41:17;;;;;;;14.63;10.13;;;;;;;10.56;93.37;100901.81;5136385;27;20375;-68
2021/11/08 11:43:51;;;;;;;16.47;10.63;;;;;;;10.60;92.62;100897.91;5137333;27;20080;-68
2021/11/08 11:46:23;;;;;;;14.18;11.50;;;;;;;10.58;92.82;100889.16;5139064;27;20306;-69
2021/11/08 11:48:50;;;;;;;13.98;10.57;;;;;;;10.65;92.72;100891.22;5138954;27;20025;-69
2021/11/08 11:51:23;;;;;;;13.95;9.75;;;;;;;10.78;91.10;100908.06;5138529;27;20039;-69
2021/11/08 11:53:50;;;;;;;17.67;11.13;;;;;;;10.75;91.62;100905.63;5143558;27;20034;-68
2021/11/08 11:56:18;;;;;;;13.27;10.70;;;;;;;10.73;92.21;100912.06;5148011;27;20084;-69
2021/11/08 11:58:45;;;;;;;19.23;10.32;;;;;;;10.74;92.69;100909.25;5150299;27;20469;-67
2021/11/08 12:01:14;;;;;;;15.15;10.70;;;;;;;10.74;92.66;100905.75;5151006;27;20514;-70
2021/11/08 12:03:40;;;;;;;12.15;9.98;;;;;;;10.72;92.33;100896.94;5153529;27;20023;-68
2021/11/08 12:06:10;;;;;;;14.23;10.52;;;;;;;10.79;92.23;100900.84;5150896;27;20034;-68
2021/11/08 12:08:39;;;;;;;14.00;10.00;;;;;;;10.82;92.27;100898.78;5145913;27;20019;-68
2021/11/08 12:11:07;;;;;;;15.63;10.32;;;;;;;10.91;91.72;100903.44;5145511;27;20054;-69
2021/11/08 12:13:40;;;;;;;17.48;10.30;;;;;;;10.95;91.01;100891.47;5140433;27;20023;-67
2021/11/08 12:16:21;;;;;;;14.77;10.13;;;;;;;10.97;91.16;100892.19;5139473;27;20023;-67
2021/11/08 12:18:48;;;;;;;15.52;10.95;;;;;;;11.00;91.43;100889.25;5141654;27;20015;-68
2021/11/08 12:21:25;;;;;;;16.02;11.00;;;;;;;10.95;91.44;100888.78;5139771;27;20061;-67
2021/11/08 12:23:52;;;;;;;17.33;11.13;;;;;;;10.94;91.95;100891.59;5135258;27;20027;-69
2021/11/08 12:26:20;;;;;;;15.93;10.05;;;;;;;10.98;91.57;100896.59;5133807;27;20038;-69
2021/11/08 12:28:47;;;;;;;13.52;10.05;;;;;;;11.01;90.34;100899.03;5134239;27;20387;-70
2021/11/08 12:31:20;;;;;;;14.85;10.20;;;;;;;10.97;90.84;100892.19;5134275;27;20505;-69
2021/11/08 12:33:58;;;;;;;15.77;10.52;;;;;;;10.93;91.77;100893.41;5133995;27;20075;-69
2021/11/08 12:36:25;;;;;;;15.23;10.55;;;;;;;10.95;92.04;100894.16;5132678;27;20637;-68
2021/11/08 12:39:12;;;;;;;14.00;10.25;;;;;;;11.01;91.21;100903.53;5134108;27;20027;-69
2021/11/08 12:41:46;;;;;;;15.00;10.25;;;;;;;11.05;90.93;100886.19;5132660;27;20022;-70
2021/11/08 12:44:13;;;;;;;12.63;9.27;;;;;;;11.05;90.68;100883.50;5131400;27;20047;-70
2021/11/08 12:46:44;;;;;;;13.95;9.63;;;;;;;11.23;88.83;100882.88;5133346;27;20489;-69
2021/11/08 12:49:14;;;;;;;13.65;9.40;;;;;;;11.21;89.67;100887.53;5132523;27;20031;-70
2021/11/08 12:51:51;;;;;;;14.90;9.35;;;;;;;11.17;90.39;100882.53;5132881;27;20059;-69
2021/11/08 12:54:17;;;;;;;12.85;9.07;;;;;;;11.32;86.80;100889.34;5132598;27;20497;-68
2021/11/08 12:56:44;;;;;;;14.02;9.00;;;;;;;11.31;86.39;100893.84;5132066;27;20023;-70
2021/11/08 12:59:33;;;;;;;11.63;8.55;;;;;;;11.22;88.28;100889.22;5132440;27;20042;-68
2021/11/08 13:02:09;;;;;;;13.70;8.57;;;;;;;11.23;87.69;100887.41;5129597;27;20046;-69
2021/11/08 13:04:47;;;;;;;14.75;8.65;;;;;;;11.27;87.24;100892.41;5132184;27;20051;-69